Saturday, February 13, 2016, 1:46 AM EST

KSEG, Selinsgrove Penn Valley Airport

Location: Selinsgrove, PA, United States Lat: 40.817
Local Time: 1:46 AM EST ( 6:46 GMT) Lon: -76.867
Time Zone: US/Eastern Elev: 449 ft

Show me the last for .
Show Decoded

2016-02-13 00:53 METAR KSEG 130553Z AUTO 00000KT 10SM CLR M09/M12 A2992 RMK AO2 SLP139 60000
                 T10941117 11067 21094 58010 =
2016-02-12 23:53 METAR KSEG 130453Z AUTO 20004KT 10SM BKN040 M08/M11 A2993 RMK AO2 SLP142
                 T10781106 410561183 =
2016-02-12 22:53 METAR KSEG 130353Z AUTO 22004KT 10SM SCT038 OVC090 M07/M10 A2994 RMK AO2 SLP146
                 T10721100 =
2016-02-12 21:53 METAR KSEG 130253Z AUTO 22004KT 6SM HZ FEW065 OVC095 M07/M09 A2995 RMK AO2 SNE47
                 SLP149 P0000 60000 T10671094 58008 =
2016-02-12 20:53 METAR KSEG 130153Z AUTO 21003KT 4SM -SN OVC044 M07/M09 A2996 RMK AO2 SLP154
                 P0000 T10671094 =
2016-02-12 20:45 METAR KSEG 130145Z AUTO 19004KT 3SM -SN OVC040 M07/M09 A2996 RMK AO2 P0000
                 T10671094 =
2016-02-12 20:12 METAR KSEG 130112Z AUTO 20003KT 2 1/2SM -SN OVC034 M07/M09 A2997 RMK AO2 P0000
                 T10671094 =
2016-02-12 19:53 METAR KSEG 130053Z AUTO 20003KT 4SM -SN OVC036 M07/M10 A2997 RMK AO2 SNB07
                 SLP159 P0000 T10671100 =
2016-02-12 18:53 METAR KSEG 122353Z AUTO 20004KT 10SM OVC085 M07/M11 A2997 RMK AO2 SLP159 60000
                 T10671106 11056 21067 56016 =
2016-02-12 17:53 METAR KSEG 122253Z AUTO 20003KT 10SM SCT048 SCT070 SCT110 M07/M11 A2999 RMK AO2
                 SNB01E12 SLP163 P0000 T10671111 =
2016-02-12 16:53 METAR KSEG 122153Z AUTO 19007KT 10SM BKN039 OVC050 M06/M12 A3000 RMK AO2 SLP169
                 T10611117 =
2016-02-12 15:53 METAR KSEG 122053Z AUTO 25006KT 10SM FEW046 OVC055 M06/M14 A3002 RMK AO2 SLP174
                 T10561144 56030 =
2016-02-12 14:53 METAR KSEG 121953Z AUTO 18006KT 10SM SCT060 BKN075 M06/M15 A3004 RMK AO2 SLP180
                 T10561150 =
2016-02-12 13:53 METAR KSEG 121853Z AUTO 20009KT 10SM BKN050 OVC085 M06/M16 A3007 RMK AO2 SLP191
                 T10561156 =
2016-02-12 12:53 METAR KSEG 121753Z AUTO 22009KT 10SM BKN090 M06/M16 A3011 RMK AO2 SLP204
                 T10611156 11061 21178 58038 =
2016-02-12 11:53 METAR KSEG 121653Z AUTO 21006KT 10SM FEW110 M07/M15 A3015 RMK AO2 SLP218
                 T10671150 =
2016-02-12 10:53 METAR KSEG 121553Z AUTO 20008KT 170V230 10SM CLR M07/M14 A3019 RMK AO2 SLP233
                 T10721144 =
2016-02-12 09:53 METAR KSEG 121453Z AUTO VRB06KT 10SM BKN120 M08/M15 A3022 RMK AO2 SLP242
                 T10831150 56010 =
2016-02-12 08:53 METAR KSEG 121353Z AUTO 00000KT 10SM CLR M11/M14 A3023 RMK AO2 SLP245 T11061139
                 =
2016-02-12 07:53 METAR KSEG 121253Z AUTO 00000KT 10SM CLR M15/M17 A3025 RMK AO2 SLP252 T11501167
                 =
2016-02-12 06:53 METAR KSEG 121153Z AUTO 00000KT 10SM CLR M18/M20 A3025 RMK AO2 SLP255 I1000
                 I6000 T11781200 11100 21183 56001 =
2016-02-12 05:53 METAR KSEG 121053Z AUTO 00000KT 10SM CLR M16/M17 A3025 RMK AO2 SLP254 I1000
                 T11561172 =
2016-02-12 04:53 METAR KSEG 120953Z AUTO 32003KT 10SM CLR M15/M17 A3025 RMK AO2 SLP253 T11501172
                 =
2016-02-12 03:53 METAR KSEG 120853Z AUTO 00000KT 10SM CLR M16/M18 A3026 RMK AO2 SLP255 T11561178
                 58002 TSNO =
2016-02-12 02:53 METAR KSEG 120753Z AUTO 00000KT 10SM CLR M13/M18 A3026 RMK AO2 SLP256 T11331183
                 =
2016-02-12 01:53 METAR KSEG 120653Z AUTO 31003KT 10SM CLR M11/M18 A3026 RMK AO2 SLP255 T11061183
                 =

Support USWX by starting your Amazon purchase here.